createdAt,value
2019-03-16T00:02:01.724Z,4.07
2019-03-16T00:04:32.219Z,3.97
2019-03-16T00:07:02.706Z,3.90
2019-03-16T00:09:33.190Z,3.87
2019-03-16T00:12:03.825Z,4.20
2019-03-16T00:14:34.302Z,3.97
2019-03-16T00:17:04.786Z,4.17
2019-03-16T00:19:35.227Z,4.20
2019-03-16T00:22:06.550Z,4.13
2019-03-16T00:24:37.346Z,3.87
2019-03-16T00:27:08.117Z,3.60
2019-03-16T00:29:38.865Z,3.77
2019-03-16T00:32:13.737Z,3.80
2019-03-16T00:34:42.130Z,3.97
2019-03-16T00:37:12.830Z,4.03
2019-03-16T00:39:43.536Z,3.90
2019-03-16T00:42:14.208Z,4.27
2019-03-16T00:44:44.969Z,3.73
2019-03-16T00:47:15.630Z,4.10
2019-03-16T00:49:46.207Z,4.20
2019-03-16T00:52:16.668Z,4.13
2019-03-16T00:54:47.374Z,4.33
2019-03-16T00:57:18.176Z,4.10
2019-03-16T00:59:48.986Z,4.40
2019-03-16T01:02:26.992Z,4.20
2019-03-16T01:04:52.023Z,4.43
2019-03-16T01:07:22.785Z,4.30
2019-03-16T01:09:53.576Z,5.13
2019-03-16T01:12:24.263Z,4.43
2019-03-16T01:14:54.929Z,4.37
2019-03-16T01:17:25.570Z,4.80
2019-03-16T01:19:56.504Z,4.60
2019-03-16T01:22:27.202Z,4.30
2019-03-16T01:24:57.904Z,4.37
2019-03-16T01:27:28.566Z,4.17
2019-03-16T01:29:59.454Z,4.47
2019-03-16T01:32:39.935Z,4.37
2019-03-16T01:35:02.494Z,4.50
2019-03-16T01:37:33.154Z,4.50
2019-03-16T01:40:03.932Z,5.20
2019-03-16T01:42:34.371Z,4.20
2019-03-16T01:45:05.657Z,4.43
2019-03-16T01:47:36.431Z,4.83
2019-03-16T01:50:07.365Z,4.33
2019-03-16T01:52:37.816Z,4.67
2019-03-16T01:55:08.582Z,4.53
2019-03-16T01:57:39.039Z,4.83
2019-03-16T02:00:10.417Z,4.10
2019-03-16T02:02:53.709Z,4.30
2019-03-16T02:05:13.167Z,4.70
2019-03-16T02:07:43.998Z,3.90
2019-03-16T02:10:14.759Z,4.23
2019-03-16T02:12:45.469Z,4.17
2019-03-16T02:15:16.263Z,4.23
2019-03-16T02:17:47.206Z,4.00
2019-03-16T02:20:17.946Z,4.10
2019-03-16T02:22:48.711Z,4.23
2019-03-16T02:25:19.450Z,3.93
2019-03-16T02:27:50.149Z,4.60
2019-03-16T02:30:20.795Z,3.97
2019-03-16T02:32:51.555Z,3.80
2019-03-16T02:35:22.258Z,4.57
2019-03-16T02:37:52.959Z,4.67
2019-03-16T02:40:23.445Z,4.30
2019-03-16T02:42:54.361Z,4.20
2019-03-16T02:45:25.138Z,4.60
2019-03-16T02:47:55.796Z,4.07
2019-03-16T02:50:26.271Z,3.93
2019-03-16T02:52:56.725Z,3.60
2019-03-16T02:55:27.163Z,3.77
2019-03-16T02:57:57.661Z,4.03
2019-03-16T03:00:28.403Z,4.10
2019-03-16T03:02:59.057Z,4.17
2019-03-16T03:05:29.801Z,4.20
2019-03-16T03:08:00.312Z,4.50
2019-03-16T03:10:30.753Z,4.20
2019-03-16T03:13:01.585Z,4.67
2019-03-16T03:15:32.227Z,4.47
2019-03-16T03:18:03.234Z,4.90
2019-03-16T03:20:33.998Z,5.33
2019-03-16T03:23:04.816Z,6.10
2019-03-16T03:25:35.551Z,5.40
2019-03-16T03:28:06.379Z,6.00
2019-03-16T03:30:37.161Z,6.27
2019-03-16T03:33:07.961Z,6.73
2019-03-16T03:35:38.757Z,6.77
2019-03-16T03:38:09.310Z,7.03
2019-03-16T03:40:40.069Z,6.57
2019-03-16T03:43:10.720Z,7.23
2019-03-16T03:45:41.516Z,7.40
2019-03-16T03:48:12.265Z,6.83
2019-03-16T03:50:43.034Z,5.83
2019-03-16T03:53:13.766Z,5.90
2019-03-16T03:55:44.572Z,6.60
2019-03-16T03:58:15.394Z,6.17
2019-03-16T04:00:45.984Z,7.43
2019-03-16T04:03:16.574Z,6.13
2019-03-16T04:05:47.110Z,6.20
2019-03-16T04:08:17.663Z,7.97
2019-03-16T04:10:48.133Z,6.50
2019-03-16T04:13:18.581Z,6.87
2019-03-16T04:15:49.034Z,6.07
2019-03-16T04:18:19.471Z,5.23
2019-03-16T04:20:49.984Z,6.20
2019-03-16T04:23:20.417Z,5.90
2019-03-16T04:25:50.902Z,6.70
2019-03-16T04:28:21.355Z,5.90
2019-03-16T04:30:51.842Z,5.73
2019-03-16T04:33:22.288Z,5.43
2019-03-16T04:35:52.772Z,5.67
2019-03-16T04:38:23.228Z,6.10
2019-03-16T04:40:53.732Z,6.10
2019-03-16T04:43:24.450Z,6.10
2019-03-16T04:45:55.110Z,6.30
2019-03-16T04:48:25.951Z,5.90
2019-03-16T04:50:56.722Z,6.40
2019-03-16T04:53:27.631Z,5.90
2019-03-16T04:55:58.427Z,6.50
2019-03-16T04:58:29.114Z,6.10
2019-03-16T05:00:59.939Z,5.63
2019-03-16T05:03:30.849Z,5.87
2019-03-16T05:06:01.562Z,6.60
2019-03-16T05:08:32.335Z,6.47
2019-03-16T05:11:02.909Z,7.13
2019-03-16T05:13:33.577Z,7.07
2019-03-16T05:16:04.342Z,6.90
2019-03-16T05:18:35.188Z,10.33
2019-03-16T05:21:06.084Z,8.60
2019-03-16T05:23:36.821Z,11.07
2019-03-16T05:26:07.637Z,7.50
2019-03-16T05:28:38.114Z,8.10
2019-03-16T05:31:08.595Z,8.03
2019-03-16T05:33:39.041Z,8.63
2019-03-16T05:36:09.724Z,8.53
2019-03-16T05:38:40.550Z,8.40
2019-03-16T05:41:11.260Z,8.73
2019-03-16T05:43:41.853Z,8.70
2019-03-16T05:46:12.910Z,9.23
2019-03-16T05:48:43.663Z,9.00
2019-03-16T05:51:14.374Z,11.20
2019-03-16T05:53:45.252Z,12.27
2019-03-16T05:56:16.094Z,8.93
2019-03-16T05:58:46.651Z,8.93
2019-03-16T06:01:18.750Z,9.73
2019-03-16T06:03:49.447Z,11.03
2019-03-16T06:06:20.290Z,12.70
2019-03-16T06:08:50.889Z,10.23
2019-03-16T06:11:24.333Z,9.93
2019-03-16T06:13:55.154Z,9.30
2019-03-16T06:16:25.848Z,9.70
2019-03-16T06:18:58.468Z,9.63
2019-03-16T06:21:29.044Z,10.13
2019-03-16T06:24:01.742Z,10.67
2019-03-16T06:26:32.461Z,10.73
2019-03-16T06:29:02.852Z,11.03
2019-03-16T06:31:33.420Z,11.03
2019-03-16T06:34:04.078Z,9.90
2019-03-16T06:36:34.834Z,9.70
2019-03-16T06:39:07.948Z,9.13
2019-03-16T06:41:38.372Z,9.97
2019-03-16T06:44:09.217Z,9.07
2019-03-16T06:46:39.623Z,10.50
2019-03-16T06:49:10.306Z,9.67
2019-03-16T06:51:41.244Z,9.87
2019-03-16T06:54:12.162Z,8.87
2019-03-16T06:56:42.812Z,9.37
2019-03-16T06:59:13.501Z,9.83
2019-03-16T07:01:44.187Z,10.63
2019-03-16T07:04:14.883Z,10.20
2019-03-16T07:06:46.700Z,10.33
2019-03-16T07:09:19.411Z,10.40
2019-03-16T07:11:49.941Z,9.20
2019-03-16T07:14:20.486Z,8.90
2019-03-16T07:17:01.593Z,7.87
2019-03-16T07:19:23.042Z,6.93
2019-03-16T07:21:53.887Z,7.80
2019-03-16T07:24:26.601Z,7.23
2019-03-16T07:26:57.434Z,7.83
2019-03-16T07:29:28.396Z,6.47
2019-03-16T07:31:58.837Z,6.13
2019-03-16T07:34:31.517Z,7.30
2019-03-16T07:37:01.972Z,6.07
2019-03-16T07:39:32.365Z,6.20
2019-03-16T07:42:02.930Z,7.40
2019-03-16T07:44:33.318Z,6.27
2019-03-16T07:47:03.846Z,8.13
2019-03-16T07:49:34.245Z,6.83
2019-03-16T07:52:05.786Z,7.03
2019-03-16T07:54:36.183Z,7.80
2019-03-16T07:57:06.579Z,6.90
2019-03-16T07:59:37.389Z,6.90
2019-03-16T08:02:07.780Z,7.53
2019-03-16T08:04:38.211Z,6.97
2019-03-16T08:07:08.615Z,7.90
2019-03-16T08:09:39.150Z,8.40
2019-03-16T08:12:09.539Z,7.40
2019-03-16T08:14:41.257Z,7.17
2019-03-16T08:17:11.731Z,7.40
2019-03-16T08:19:43.548Z,7.37
2019-03-16T08:22:14.168Z,7.10
2019-03-16T08:24:46.786Z,6.90
2019-03-16T08:27:17.476Z,5.93
2019-03-16T08:29:48.347Z,5.83
2019-03-16T08:32:19.099Z,6.07
2019-03-16T08:34:50.207Z,6.63
2019-03-16T08:37:20.924Z,6.20
2019-03-16T08:39:51.448Z,6.10
2019-03-16T08:42:21.951Z,7.00
2019-03-16T08:44:53.032Z,6.13
2019-03-16T08:47:23.741Z,7.20
2019-03-16T08:49:54.461Z,5.90
2019-03-16T08:52:24.936Z,5.10
2019-03-16T08:54:55.430Z,4.40
2019-03-16T08:57:25.999Z,5.03
2019-03-16T08:59:56.721Z,5.23
2019-03-16T09:02:27.333Z,4.10
2019-03-16T09:04:58.022Z,2.87
2019-03-16T09:07:28.630Z,2.83
2019-03-16T09:09:59.041Z,3.17
2019-03-16T09:12:29.479Z,2.90
2019-03-16T09:15:01.340Z,3.13
2019-03-16T09:17:31.828Z,3.50
2019-03-16T09:20:02.258Z,2.30
2019-03-16T09:22:32.693Z,2.83
2019-03-16T09:25:03.097Z,2.93
2019-03-16T09:27:33.521Z,2.73
2019-03-16T09:30:07.327Z,3.23
2019-03-16T09:32:38.028Z,2.70
2019-03-16T09:35:08.723Z,2.50
2019-03-16T09:37:39.572Z,2.27
2019-03-16T09:40:10.435Z,2.67
2019-03-16T09:42:41.173Z,2.87
2019-03-16T09:45:12.387Z,2.63
2019-03-16T09:47:43.420Z,2.80
2019-03-16T09:50:14.194Z,2.20
2019-03-16T09:52:44.902Z,2.57
2019-03-16T09:55:25.099Z,2.63
2019-03-16T09:57:55.482Z,2.30
2019-03-16T10:00:26.151Z,2.80
2019-03-16T10:02:57.762Z,2.80
2019-03-16T10:05:28.344Z,2.33
2019-03-16T10:07:59.109Z,2.47
2019-03-16T10:10:31.589Z,2.30
2019-03-16T10:13:02.036Z,2.30
2019-03-16T10:15:32.508Z,2.43
2019-03-16T10:18:03.301Z,2.43
2019-03-16T10:20:33.789Z,2.27
2019-03-16T10:23:04.225Z,2.33
2019-03-16T10:25:34.621Z,2.70
2019-03-16T10:28:06.148Z,2.83
2019-03-16T10:30:36.832Z,3.97
2019-03-16T10:33:07.523Z,2.87
2019-03-16T10:35:37.921Z,3.70
2019-03-16T10:38:08.764Z,3.13
2019-03-16T10:40:39.090Z,2.50
2019-03-16T10:43:09.479Z,1.80
2019-03-16T10:45:39.902Z,2.43
2019-03-16T10:48:11.332Z,2.40
2019-03-16T10:50:41.760Z,2.50
2019-03-16T10:53:12.151Z,2.10
2019-03-16T10:55:42.686Z,2.60
2019-03-16T10:58:13.175Z,3.90
2019-03-16T11:00:43.465Z,2.77
2019-03-16T11:03:13.896Z,2.60
2019-03-16T11:05:44.425Z,2.30
2019-03-16T11:08:16.989Z,2.50
2019-03-16T11:10:48.429Z,2.77
2019-03-16T11:13:22.062Z,2.50
2019-03-16T11:15:53.789Z,2.30
2019-03-16T11:18:25.640Z,2.80
2019-03-16T11:20:56.644Z,2.90
2019-03-16T11:23:27.456Z,3.17
2019-03-16T11:25:57.899Z,2.10
2019-03-16T11:28:29.150Z,1.90
2019-03-16T11:30:59.759Z,2.33
2019-03-16T11:33:30.399Z,2.30
2019-03-16T11:36:01.059Z,2.90
2019-03-16T11:38:31.735Z,2.00
2019-03-16T11:41:02.439Z,1.60
2019-03-16T11:43:33.064Z,1.80
2019-03-16T11:46:03.782Z,2.50
2019-03-16T11:48:34.402Z,2.60
2019-03-16T11:51:05.277Z,2.50
2019-03-16T11:53:35.805Z,2.10
2019-03-16T11:56:17.472Z,1.57
2019-03-16T11:58:38.843Z,1.50
2019-03-16T12:01:09.515Z,1.97
2019-03-16T12:03:39.912Z,3.17
2019-03-16T12:06:10.344Z,2.00
2019-03-16T12:08:40.733Z,2.00
2019-03-16T12:11:11.258Z,1.40
2019-03-16T12:13:43.869Z,2.40
2019-03-16T12:16:14.655Z,1.50
2019-03-16T12:18:46.175Z,2.70
2019-03-16T12:21:16.703Z,1.63
2019-03-16T12:23:47.103Z,1.43
2019-03-16T12:26:20.040Z,1.57
2019-03-16T12:28:49.961Z,1.70
2019-03-16T12:31:20.238Z,1.97
2019-03-16T12:33:56.426Z,1.93
2019-03-16T12:36:25.916Z,1.30
2019-03-16T12:38:56.309Z,1.73
2019-03-16T12:41:26.696Z,1.80
2019-03-16T12:43:57.414Z,2.03
2019-03-16T12:46:28.176Z,2.30
2019-03-16T12:48:58.799Z,1.73
2019-03-16T12:51:29.666Z,2.00
2019-03-16T12:54:01.297Z,1.93
2019-03-16T12:56:31.863Z,1.60
2019-03-16T12:59:10.361Z,1.80
2019-03-16T13:01:36.477Z,1.43
2019-03-16T13:04:07.099Z,1.53
2019-03-16T13:06:37.528Z,1.20
2019-03-16T13:09:09.206Z,1.20
2019-03-16T13:11:39.922Z,1.90
2019-03-16T13:14:10.555Z,3.07
2019-03-16T13:16:41.325Z,2.70
2019-03-16T13:19:12.598Z,2.80
2019-03-16T13:21:43.963Z,2.20
2019-03-16T13:24:14.654Z,2.30
2019-03-16T13:26:45.327Z,1.70
2019-03-16T13:29:15.757Z,1.80
2019-03-16T13:31:46.138Z,1.70
2019-03-16T13:34:16.576Z,1.83
2019-03-16T13:36:46.963Z,2.20
2019-03-16T13:39:17.631Z,2.80
2019-03-16T13:41:48.444Z,1.67
2019-03-16T13:44:19.175Z,2.27
2019-03-16T13:46:49.839Z,2.07
2019-03-16T13:49:20.426Z,2.50
2019-03-16T13:51:51.279Z,2.40
2019-03-16T13:54:21.861Z,1.90
2019-03-16T13:56:52.276Z,2.03
2019-03-16T13:59:22.662Z,1.80
2019-03-16T14:01:53.237Z,1.70
2019-03-16T14:04:23.893Z,1.77
2019-03-16T14:06:54.569Z,1.80
2019-03-16T14:09:25.246Z,3.50
2019-03-16T14:11:55.988Z,1.57
2019-03-16T14:14:26.596Z,1.70
2019-03-16T14:16:57.158Z,1.13
2019-03-16T14:19:27.826Z,1.53
2019-03-16T14:21:58.220Z,1.67
2019-03-16T14:24:28.922Z,2.00
2019-03-16T14:26:59.789Z,2.50
2019-03-16T14:29:30.463Z,1.60
2019-03-16T14:32:01.282Z,1.77
2019-03-16T14:34:31.883Z,2.37
2019-03-16T14:37:02.575Z,2.13
2019-03-16T14:39:39.541Z,2.23
2019-03-16T14:42:10.646Z,1.90
2019-03-16T14:44:41.508Z,2.10
2019-03-16T14:47:15.072Z,2.10
2019-03-16T14:49:46.774Z,2.10
2019-03-16T14:52:19.375Z,2.30
2019-03-16T14:54:49.931Z,1.50
2019-03-16T14:57:20.435Z,2.17
2019-03-16T14:59:50.955Z,1.90
2019-03-16T15:02:21.545Z,2.17
2019-03-16T15:04:52.236Z,2.00
2019-03-16T15:07:22.948Z,1.77
2019-03-16T15:09:53.646Z,2.30
2019-03-16T15:12:24.277Z,2.40
2019-03-16T15:14:55.011Z,2.17
2019-03-16T15:17:25.735Z,1.80
2019-03-16T15:19:56.411Z,2.10
2019-03-16T15:22:27.049Z,2.27
2019-03-16T15:24:57.856Z,2.40
2019-03-16T15:27:28.483Z,2.10
2019-03-16T15:29:59.155Z,2.20
2019-03-16T15:32:29.960Z,2.37
2019-03-16T15:35:00.659Z,2.07
2019-03-16T15:37:31.565Z,2.50
2019-03-16T15:40:02.308Z,1.93
2019-03-16T15:42:33.064Z,2.40
2019-03-16T15:45:03.875Z,2.40
2019-03-16T15:47:34.471Z,2.30
2019-03-16T15:50:05.514Z,2.40
2019-03-16T15:52:37.566Z,3.00
2019-03-16T15:55:08.785Z,2.70
2019-03-16T15:57:42.312Z,2.90
2019-03-16T16:00:12.861Z,2.73
2019-03-16T16:02:43.424Z,3.20
2019-03-16T16:05:13.915Z,2.87
2019-03-16T16:07:44.667Z,2.90
2019-03-16T16:10:15.279Z,2.83
2019-03-16T16:12:46.122Z,3.47
2019-03-16T16:15:17.003Z,3.30
2019-03-16T16:17:48.114Z,3.73
2019-03-16T16:20:18.831Z,3.40
2019-03-16T16:22:49.569Z,3.50
2019-03-16T16:25:20.400Z,3.90
2019-03-16T16:27:51.356Z,3.30
2019-03-16T16:30:22.150Z,2.97
2019-03-16T16:32:53.063Z,2.73
2019-03-16T16:35:23.755Z,3.07
2019-03-16T16:37:54.604Z,2.60
2019-03-16T16:40:25.401Z,3.10
2019-03-16T16:42:56.117Z,2.80
2019-03-16T16:45:26.943Z,3.07
2019-03-16T16:47:57.651Z,3.20
2019-03-16T16:50:28.390Z,3.20
2019-03-16T16:52:59.156Z,3.30
2019-03-16T16:55:29.611Z,4.10
2019-03-16T16:58:00.315Z,3.57
2019-03-16T17:00:31.094Z,3.70
2019-03-16T17:03:01.856Z,3.97
2019-03-16T17:05:32.638Z,3.80
2019-03-16T17:08:03.337Z,3.83
2019-03-16T17:10:34.159Z,4.10
2019-03-16T17:13:05.045Z,3.93
2019-03-16T17:15:35.677Z,4.00
2019-03-16T17:18:06.336Z,4.50
2019-03-16T17:20:36.856Z,5.30
2019-03-16T17:23:07.315Z,5.33
2019-03-16T17:25:37.752Z,5.67
2019-03-16T17:28:08.235Z,5.00
2019-03-16T17:30:38.691Z,5.13
2019-03-16T17:33:09.455Z,5.17
2019-03-16T17:35:40.235Z,5.30
2019-03-16T17:38:11.043Z,4.80
2019-03-16T17:40:41.772Z,5.57
2019-03-16T17:43:12.548Z,5.23
2019-03-16T17:45:43.242Z,4.70
2019-03-16T17:48:14.048Z,5.60
2019-03-16T17:50:44.823Z,5.57
2019-03-16T17:53:15.433Z,6.43
2019-03-16T17:55:46.179Z,6.30
2019-03-16T17:58:16.699Z,6.20
2019-03-16T18:00:47.339Z,6.30
2019-03-16T18:03:18.084Z,6.50
2019-03-16T18:05:48.585Z,6.33
2019-03-16T18:08:19.080Z,6.83
2019-03-16T18:10:49.865Z,6.23
2019-03-16T18:13:20.439Z,6.03
2019-03-16T18:15:50.908Z,5.73
2019-03-16T18:18:21.566Z,6.00
2019-03-16T18:20:52.304Z,5.80
2019-03-16T18:23:22.953Z,5.40
2019-03-16T18:25:53.659Z,5.27
2019-03-16T18:28:24.475Z,6.00
2019-03-16T18:30:55.342Z,5.40
2019-03-16T18:33:25.973Z,5.90
2019-03-16T18:35:56.748Z,5.63
2019-03-16T18:38:27.622Z,5.67
2019-03-16T18:40:58.314Z,5.80
2019-03-16T18:43:29.023Z,5.50
2019-03-16T18:45:59.861Z,5.13
2019-03-16T18:48:30.663Z,5.40
2019-03-16T18:51:01.876Z,5.20
2019-03-16T18:53:32.671Z,5.63
2019-03-16T18:56:03.369Z,5.93
2019-03-16T18:58:37.623Z,6.50
2019-03-16T19:01:06.506Z,6.60
2019-03-16T19:03:37.182Z,6.47
2019-03-16T19:06:07.915Z,6.50
2019-03-16T19:08:38.616Z,6.83
2019-03-16T19:11:09.564Z,6.63
2019-03-16T19:13:40.262Z,7.20
2019-03-16T19:16:11.170Z,6.27
2019-03-16T19:18:41.903Z,6.73
2019-03-16T19:21:12.607Z,7.10
2019-03-16T19:23:43.108Z,6.30
2019-03-16T19:26:13.602Z,6.23
2019-03-16T19:28:44.055Z,6.70
2019-03-16T19:31:14.547Z,7.00
2019-03-16T19:33:45.405Z,6.93
2019-03-16T19:36:16.347Z,7.30
2019-03-16T19:38:46.969Z,7.00
2019-03-16T19:41:17.464Z,7.10
2019-03-16T19:43:50.367Z,6.70
2019-03-16T19:46:20.163Z,7.03
2019-03-16T19:48:50.606Z,7.23
2019-03-16T19:51:21.206Z,6.80
2019-03-16T19:53:51.682Z,6.10
2019-03-16T19:56:22.133Z,6.40
2019-03-16T19:59:00.568Z,5.23
2019-03-16T20:01:24.772Z,5.50
2019-03-16T20:03:55.267Z,5.70
2019-03-16T20:06:26.263Z,5.40
2019-03-16T20:08:56.845Z,6.77
2019-03-16T20:11:27.302Z,5.50
2019-03-16T20:13:57.800Z,5.47
2019-03-16T20:16:28.362Z,5.37
2019-03-16T20:18:58.818Z,5.17
2019-03-16T20:21:29.311Z,4.77
2019-03-16T20:23:59.775Z,4.90
2019-03-16T20:26:30.272Z,5.03
2019-03-16T20:29:00.758Z,4.87
2019-03-16T20:31:33.373Z,5.03
2019-03-16T20:34:03.493Z,5.10
2019-03-16T20:36:34.030Z,5.33
2019-03-16T20:39:06.546Z,4.97
2019-03-16T20:41:37.145Z,4.90
2019-03-16T20:44:07.778Z,5.40
2019-03-16T20:46:38.239Z,5.47
2019-03-16T20:49:08.753Z,5.40
2019-03-16T20:51:39.196Z,5.23
2019-03-16T20:54:09.683Z,5.90
2019-03-16T20:56:40.164Z,5.80
2019-03-16T20:59:10.644Z,5.10
2019-03-16T21:01:41.103Z,5.70
2019-03-16T21:04:11.562Z,5.37
2019-03-16T21:06:42.037Z,5.73
2019-03-16T21:09:12.536Z,5.97
2019-03-16T21:11:43.167Z,5.63
2019-03-16T21:14:13.627Z,5.50
2019-03-16T21:16:44.120Z,5.70
2019-03-16T21:19:14.613Z,5.83
2019-03-16T21:21:45.072Z,5.63
2019-03-16T21:24:15.581Z,5.80
2019-03-16T21:26:52.618Z,6.20
2019-03-16T21:29:18.238Z,5.93
2019-03-16T21:31:48.714Z,6.13
2019-03-16T21:34:19.167Z,5.70
2019-03-16T21:36:49.625Z,6.40
2019-03-16T21:39:20.067Z,6.00
2019-03-16T21:41:50.566Z,5.97
2019-03-16T21:44:21.008Z,6.03
2019-03-16T21:46:51.503Z,5.80
2019-03-16T21:49:22.004Z,5.50
2019-03-16T21:51:52.509Z,6.27
2019-03-16T21:54:23.040Z,5.60
2019-03-16T21:56:53.517Z,5.43
2019-03-16T21:59:26.323Z,5.30
2019-03-16T22:01:56.136Z,5.23
2019-03-16T22:04:26.625Z,5.33
2019-03-16T22:06:57.075Z,5.10
2019-03-16T22:09:27.567Z,5.20
2019-03-16T22:11:58.070Z,4.43
2019-03-16T22:14:28.555Z,4.27
2019-03-16T22:16:59.030Z,4.30
2019-03-16T22:19:29.503Z,4.30
2019-03-16T22:21:59.997Z,4.43
2019-03-16T22:24:30.623Z,4.00
2019-03-16T22:27:01.069Z,4.10
2019-03-16T22:29:31.556Z,4.00
2019-03-16T22:32:02.003Z,3.97
2019-03-16T22:34:32.493Z,4.33
2019-03-16T22:37:02.937Z,4.70
2019-03-16T22:39:33.435Z,4.07
2019-03-16T22:42:03.881Z,3.93
2019-03-16T22:44:34.365Z,3.80
2019-03-16T22:47:04.893Z,4.13
2019-03-16T22:49:35.390Z,4.03
2019-03-16T22:52:05.993Z,4.27
2019-03-16T22:54:36.444Z,4.20
2019-03-16T22:57:06.935Z,4.53
2019-03-16T22:59:37.391Z,4.77
2019-03-16T23:02:08.151Z,5.57
2019-03-16T23:04:38.803Z,5.27
2019-03-16T23:07:09.354Z,6.10
2019-03-16T23:09:39.878Z,5.80
2019-03-16T23:12:10.328Z,5.70
2019-03-16T23:14:40.838Z,5.20
2019-03-16T23:17:11.295Z,6.00
2019-03-16T23:19:41.792Z,5.37
2019-03-16T23:22:12.290Z,5.17
2019-03-16T23:24:42.794Z,4.63
2019-03-16T23:27:13.247Z,4.67
2019-03-16T23:29:43.741Z,4.80
2019-03-16T23:32:14.286Z,4.63
2019-03-16T23:34:44.767Z,4.93
2019-03-16T23:37:15.219Z,5.60
2019-03-16T23:39:45.710Z,4.93
2019-03-16T23:42:16.196Z,5.00
2019-03-16T23:44:46.645Z,4.27
2019-03-16T23:47:17.291Z,4.27
2019-03-16T23:49:47.698Z,4.50
2019-03-16T23:52:18.189Z,4.60
2019-03-16T23:54:48.648Z,4.40
2019-03-16T23:57:19.133Z,4.60
2019-03-16T23:59:49.630Z,4.97
